sensor_id;sensor_type;location;lat;lon;timestamp;pressure;altitude;pressure_sealevel;temperature;humidity
62402;BME280;48440;51.224;22.506;2023-05-03T00:01:14;99657.38;;;14.34;75.25
62402;BME280;48440;51.224;22.506;2023-05-03T00:03:39;99660.09;;;14.34;74.84
62402;BME280;48440;51.224;22.506;2023-05-03T00:06:23;99654.34;;;14.30;75.13
62402;BME280;48440;51.224;22.506;2023-05-03T00:08:49;99656.84;;;14.26;75.30
62402;BME280;48440;51.224;22.506;2023-05-03T00:11:14;99655.75;;;14.27;75.31
62402;BME280;48440;51.224;22.506;2023-05-03T00:13:40;99660.38;;;14.27;75.46
62402;BME280;48440;51.224;22.506;2023-05-03T00:16:05;99658.75;;;14.26;75.37
62402;BME280;48440;51.224;22.506;2023-05-03T00:18:31;99654.34;;;14.20;75.92
62402;BME280;48440;51.224;22.506;2023-05-03T00:20:57;99659.00;;;14.19;76.02
62402;BME280;48440;51.224;22.506;2023-05-03T00:23:24;99655.44;;;14.19;75.81
62402;BME280;48440;51.224;22.506;2023-05-03T00:25:54;99661.16;;;14.12;76.00
62402;BME280;48440;51.224;22.506;2023-05-03T00:28:20;99661.41;;;14.11;76.51
62402;BME280;48440;51.224;22.506;2023-05-03T00:30:46;99669.06;;;14.09;76.35
62402;BME280;48440;51.224;22.506;2023-05-03T00:33:11;99673.41;;;14.10;76.58
62402;BME280;48440;51.224;22.506;2023-05-03T00:35:37;99668.50;;;14.07;76.35
62402;BME280;48440;51.224;22.506;2023-05-03T00:38:02;99669.59;;;14.06;76.89
62402;BME280;48440;51.224;22.506;2023-05-03T00:40:28;99668.78;;;14.10;76.33
62402;BME280;48440;51.224;22.506;2023-05-03T00:42:53;99664.13;;;14.06;76.61
62402;BME280;48440;51.224;22.506;2023-05-03T00:45:18;99666.03;;;14.05;76.48
62402;BME280;48440;51.224;22.506;2023-05-03T00:47:44;99674.50;;;14.04;76.83
62402;BME280;48440;51.224;22.506;2023-05-03T00:50:10;99668.22;;;14.03;76.69
62402;BME280;48440;51.224;22.506;2023-05-03T00:52:39;99673.66;;;14.03;76.61
62402;BME280;48440;51.224;22.506;2023-05-03T00:55:06;99682.13;;;13.97;76.88
62402;BME280;48440;51.224;22.506;2023-05-03T00:57:31;99682.13;;;13.97;76.77
62402;BME280;48440;51.224;22.506;2023-05-03T00:59:57;99686.75;;;13.96;76.88
62402;BME280;48440;51.224;22.506;2023-05-03T01:02:26;99689.75;;;13.95;76.67
62402;BME280;48440;51.224;22.506;2023-05-03T01:04:53;99691.94;;;13.92;76.64
62402;BME280;48440;51.224;22.506;2023-05-03T01:07:44;99689.47;;;13.91;76.71
62402;BME280;48440;51.224;22.506;2023-05-03T01:12:59;99687.81;;;13.90;77.02
62402;BME280;48440;51.224;22.506;2023-05-03T01:18:05;99689.97;;;13.83;77.02
62402;BME280;48440;51.224;22.506;2023-05-03T01:20:36;99685.91;;;13.85;76.84
62402;BME280;48440;51.224;22.506;2023-05-03T01:23:19;99690.50;;;13.80;76.78
62402;BME280;48440;51.224;22.506;2023-05-03T01:25:50;99689.69;;;13.79;76.94
62402;BME280;48440;51.224;22.506;2023-05-03T01:28:20;99686.13;;;13.79;76.98
62402;BME280;48440;51.224;22.506;2023-05-03T01:30:47;99688.34;;;13.77;76.78
62402;BME280;48440;51.224;22.506;2023-05-03T01:33:32;99692.97;;;13.76;76.44
62402;BME280;48440;51.224;22.506;2023-05-03T01:36:12;99688.88;;;13.74;76.92
62402;BME280;48440;51.224;22.506;2023-05-03T01:38:41;99690.50;;;13.75;76.61
62402;BME280;48440;51.224;22.506;2023-05-03T01:41:11;99696.50;;;13.77;76.23
62402;BME280;48440;51.224;22.506;2023-05-03T01:43:38;99693.22;;;13.75;76.40
62402;BME280;48440;51.224;22.506;2023-05-03T01:46:04;99697.88;;;13.74;76.36
62402;BME280;48440;51.224;22.506;2023-05-03T01:48:29;99693.75;;;13.72;76.39
62402;BME280;48440;51.224;22.506;2023-05-03T01:50:55;99702.19;;;13.70;76.23
62402;BME280;48440;51.224;22.506;2023-05-03T01:53:21;99701.09;;;13.66;76.05
62402;BME280;48440;51.224;22.506;2023-05-03T01:55:46;99694.28;;;13.69;75.93
62402;BME280;48440;51.224;22.506;2023-05-03T01:58:12;99704.38;;;13.68;76.43
62402;BME280;48440;51.224;22.506;2023-05-03T02:00:37;99698.88;;;13.63;76.23
62402;BME280;48440;51.224;22.506;2023-05-03T02:03:03;99698.63;;;13.65;75.83
62402;BME280;48440;51.224;22.506;2023-05-03T02:05:28;99690.72;;;13.63;75.96
62402;BME280;48440;51.224;22.506;2023-05-03T02:07:54;99696.97;;;13.64;75.90
62402;BME280;48440;51.224;22.506;2023-05-03T02:10:19;99694.75;;;13.55;75.93
62402;BME280;48440;51.224;22.506;2023-05-03T02:12:45;99695.56;;;13.56;76.09
62402;BME280;48440;51.224;22.506;2023-05-03T02:15:11;99694.75;;;13.50;76.21
62402;BME280;48440;51.224;22.506;2023-05-03T02:17:38;99696.09;;;13.48;76.79
62402;BME280;48440;51.224;22.506;2023-05-03T02:20:04;99684.06;;;13.44;76.79
62402;BME280;48440;51.224;22.506;2023-05-03T02:22:31;99684.91;;;13.44;76.81
62402;BME280;48440;51.224;22.506;2023-05-03T02:24:56;99686.78;;;13.44;76.61
62402;BME280;48440;51.224;22.506;2023-05-03T02:27:23;99685.69;;;13.40;76.94
62402;BME280;48440;51.224;22.506;2023-05-03T02:29:48;99691.69;;;13.42;76.78
62402;BME280;48440;51.224;22.506;2023-05-03T02:32:14;99684.59;;;13.41;76.70
62402;BME280;48440;51.224;22.506;2023-05-03T02:34:40;99692.22;;;13.39;76.83
62402;BME280;48440;51.224;22.506;2023-05-03T02:37:06;99699.81;;;13.37;76.44
62402;BME280;48440;51.224;22.506;2023-05-03T02:39:31;99695.47;;;13.36;77.08
62402;BME280;48440;51.224;22.506;2023-05-03T02:41:57;99698.19;;;13.36;77.02
62402;BME280;48440;51.224;22.506;2023-05-03T02:44:22;99703.13;;;13.39;76.79
62402;BME280;48440;51.224;22.506;2023-05-03T02:46:48;99702.81;;;13.35;77.14
62402;BME280;48440;51.224;22.506;2023-05-03T02:49:13;99698.75;;;13.38;76.93
62402;BME280;48440;51.224;22.506;2023-05-03T02:51:39;99700.91;;;13.36;76.96
62402;BME280;48440;51.224;22.506;2023-05-03T02:54:04;99699.78;;;13.32;77.53
62402;BME280;48440;51.224;22.506;2023-05-03T02:56:30;99708.78;;;13.32;77.42
62402;BME280;48440;51.224;22.506;2023-05-03T02:58:57;99705.50;;;13.30;77.27
62402;BME280;48440;51.224;22.506;2023-05-03T03:01:23;99715.06;;;13.33;77.51
62402;BME280;48440;51.224;22.506;2023-05-03T03:03:48;99713.16;;;13.33;77.46
62402;BME280;48440;51.224;22.506;2023-05-03T03:06:14;99723.50;;;13.31;77.35
62402;BME280;48440;51.224;22.506;2023-05-03T03:08:39;99727.88;;;13.32;77.31
62402;BME280;48440;51.224;22.506;2023-05-03T03:11:07;99727.31;;;13.30;77.46
62402;BME280;48440;51.224;22.506;2023-05-03T03:13:32;99726.22;;;13.31;77.25
62402;BME280;48440;51.224;22.506;2023-05-03T03:15:58;99725.97;;;13.33;77.03
62402;BME280;48440;51.224;22.506;2023-05-03T03:18:23;99736.03;;;13.32;77.24
62402;BME280;48440;51.224;22.506;2023-05-03T03:20:49;99731.69;;;13.31;77.21
62402;BME280;48440;51.224;22.506;2023-05-03T03:23:14;99739.03;;;13.31;77.14
62402;BME280;48440;51.224;22.506;2023-05-03T03:25:40;99745.03;;;13.33;76.94
62402;BME280;48440;51.224;22.506;2023-05-03T03:28:06;99736.31;;;13.31;77.53
62402;BME280;48440;51.224;22.506;2023-05-03T03:30:32;99736.31;;;13.31;77.42
62402;BME280;48440;51.224;22.506;2023-05-03T03:32:57;99739.03;;;13.31;77.13
62402;BME280;48440;51.224;22.506;2023-05-03T03:35:23;99745.88;;;13.33;77.32
62402;BME280;48440;51.224;22.506;2023-05-03T03:37:49;99751.56;;;13.32;77.06
62402;BME280;48440;51.224;22.506;2023-05-03T03:40:14;99754.31;;;13.32;77.59
62402;BME280;48440;51.224;22.506;2023-05-03T03:42:40;99752.13;;;13.34;77.49
62402;BME280;48440;51.224;22.506;2023-05-03T03:45:06;99750.50;;;13.33;77.14
62402;BME280;48440;51.224;22.506;2023-05-03T03:47:32;99752.66;;;13.31;77.30
62402;BME280;48440;51.224;22.506;2023-05-03T03:49:59;99749.13;;;13.30;77.68
62402;BME280;48440;51.224;22.506;2023-05-03T03:52:26;99756.97;;;13.27;77.42
62402;BME280;48440;51.224;22.506;2023-05-03T03:54:52;99758.34;;;13.24;77.77
62402;BME280;48440;51.224;22.506;2023-05-03T03:57:17;99762.69;;;13.20;78.10
62402;BME280;48440;51.224;22.506;2023-05-03T03:59:43;99762.69;;;13.20;78.31
62402;BME280;48440;51.224;22.506;2023-05-03T04:02:08;99761.03;;;13.19;78.45
62402;BME280;48440;51.224;22.506;2023-05-03T04:04:34;99769.78;;;13.21;77.99
62402;BME280;48440;51.224;22.506;2023-05-03T04:07:00;99779.03;;;13.20;77.39
62402;BME280;48440;51.224;22.506;2023-05-03T04:09:25;99785.00;;;13.17;77.43
62402;BME280;48440;51.224;22.506;2023-05-03T04:11:51;99781.44;;;13.16;76.45
62402;BME280;48440;51.224;22.506;2023-05-03T04:14:16;99785.69;;;13.07;75.54
62402;BME280;48440;51.224;22.506;2023-05-03T04:16:42;99796.03;;;13.05;76.38
62402;BME280;48440;51.224;22.506;2023-05-03T04:19:08;99802.25;;;13.01;75.72
62402;BME280;48440;51.224;22.506;2023-05-03T04:21:33;99803.31;;;13.00;74.95
62402;BME280;48440;51.224;22.506;2023-05-03T04:23:59;99804.44;;;12.99;74.96
62402;BME280;48440;51.224;22.506;2023-05-03T04:26:24;99800.31;;;12.96;74.46
62402;BME280;48440;51.224;22.506;2023-05-03T04:28:50;99802.47;;;12.94;73.86
62402;BME280;48440;51.224;22.506;2023-05-03T04:31:16;99810.03;;;12.87;73.54
62402;BME280;48440;51.224;22.506;2023-05-03T04:33:44;99803.63;;;12.76;73.55
62402;BME280;48440;51.224;22.506;2023-05-03T04:36:10;99808.00;;;12.77;73.78
62402;BME280;48440;51.224;22.506;2023-05-03T04:38:41;99822.88;;;12.65;73.57
62402;BME280;48440;51.224;22.506;2023-05-03T04:41:07;99823.44;;;12.67;73.87
62402;BME280;48440;51.224;22.506;2023-05-03T04:43:32;99831.34;;;12.68;74.04
62402;BME280;48440;51.224;22.506;2023-05-03T04:45:58;99829.97;;;12.66;73.79
62402;BME280;48440;51.224;22.506;2023-05-03T04:48:24;99834.59;;;12.65;73.79
62402;BME280;48440;51.224;22.506;2023-05-03T04:50:49;99828.31;;;12.65;74.12
62402;BME280;48440;51.224;22.506;2023-05-03T04:53:16;99837.56;;;12.64;74.18
62402;BME280;48440;51.224;22.506;2023-05-03T04:55:41;99846.47;;;12.59;74.03
62402;BME280;48440;51.224;22.506;2023-05-03T04:58:07;99852.44;;;12.56;73.49
62402;BME280;48440;51.224;22.506;2023-05-03T05:00:32;99851.59;;;12.55;73.04
62402;BME280;48440;51.224;22.506;2023-05-03T05:02:58;99859.41;;;12.47;72.63
62402;BME280;48440;51.224;22.506;2023-05-03T05:05:23;99863.50;;;12.49;72.12
62402;BME280;48440;51.224;22.506;2023-05-03T05:07:50;99871.56;;;12.39;71.84
62402;BME280;48440;51.224;22.506;2023-05-03T05:10:15;99881.81;;;12.32;71.41
62402;BME280;48440;51.224;22.506;2023-05-03T05:12:41;99882.88;;;12.31;71.15
62402;BME280;48440;51.224;22.506;2023-05-03T05:15:07;99890.47;;;12.29;70.65
62402;BME280;48440;51.224;22.506;2023-05-03T05:17:33;99885.19;;;12.22;70.32
62402;BME280;48440;51.224;22.506;2023-05-03T05:19:59;99886.03;;;12.23;70.39
62402;BME280;48440;51.224;22.506;2023-05-03T05:22:24;99893.66;;;12.21;69.84
62402;BME280;48440;51.224;22.506;2023-05-03T05:24:50;99893.91;;;12.19;68.99
62402;BME280;48440;51.224;22.506;2023-05-03T05:27:15;99895.78;;;12.19;68.83
62402;BME280;48440;51.224;22.506;2023-05-03T05:29:41;99900.91;;;12.15;69.49
62402;BME280;48440;51.224;22.506;2023-05-03T05:32:06;99899.34;;;12.19;69.13
62402;BME280;48440;51.224;22.506;2023-05-03T05:34:32;99906.09;;;12.17;68.96
62402;BME280;48440;51.224;22.506;2023-05-03T05:36:58;99907.25;;;12.21;69.12
62402;BME280;48440;51.224;22.506;2023-05-03T05:39:24;99907.25;;;12.21;68.46
62402;BME280;48440;51.224;22.506;2023-05-03T05:41:50;99903.69;;;12.20;68.03
62402;BME280;48440;51.224;22.506;2023-05-03T05:44:15;99910.97;;;12.15;67.75
62402;BME280;48440;51.224;22.506;2023-05-03T05:46:41;99910.63;;;12.11;68.10
62402;BME280;48440;51.224;22.506;2023-05-03T05:49:06;99916.97;;;12.17;68.60
62402;BME280;48440;51.224;22.506;2023-05-03T05:51:32;99915.91;;;12.18;68.57
62402;BME280;48440;51.224;22.506;2023-05-03T05:53:57;99919.13;;;12.15;68.49
62402;BME280;48440;51.224;22.506;2023-05-03T05:56:23;99911.03;;;12.20;67.90
62402;BME280;48440;51.224;22.506;2023-05-03T05:58:49;99911.59;;;12.22;67.82
62402;BME280;48440;51.224;22.506;2023-05-03T06:01:14;99906.72;;;12.24;67.73
62402;BME280;48440;51.224;22.506;2023-05-03T06:03:40;99909.97;;;12.21;67.83
62402;BME280;48440;51.224;22.506;2023-05-03T06:06:05;99913.81;;;12.25;67.20
62402;BME280;48440;51.224;22.506;2023-05-03T06:08:31;99918.44;;;12.24;66.56
62402;BME280;48440;51.224;22.506;2023-05-03T06:10:57;99918.69;;;12.23;66.60
62402;BME280;48440;51.224;22.506;2023-05-03T06:13:22;99922.31;;;12.29;66.05
62402;BME280;48440;51.224;22.506;2023-05-03T06:15:49;99931.63;;;12.33;65.86
62402;BME280;48440;51.224;22.506;2023-05-03T06:18:14;99935.25;;;12.38;65.45
62402;BME280;48440;51.224;22.506;2023-05-03T06:20:40;99936.72;;;12.46;65.31
62402;BME280;48440;51.224;22.506;2023-05-03T06:23:05;99944.06;;;12.45;64.56
62402;BME280;48440;51.224;22.506;2023-05-03T06:25:31;99947.03;;;12.44;64.95
62402;BME280;48440;51.224;22.506;2023-05-03T06:27:56;99942.91;;;12.41;64.93
62402;BME280;48440;51.224;22.506;2023-05-03T06:30:22;99951.06;;;12.41;64.83
62402;BME280;48440;51.224;22.506;2023-05-03T06:32:52;99952.72;;;12.42;64.46
62402;BME280;48440;51.224;22.506;2023-05-03T06:35:18;99947.88;;;12.49;63.62
62402;BME280;48440;51.224;22.506;2023-05-03T06:37:46;99951.69;;;12.48;63.22
62402;BME280;48440;51.224;22.506;2023-05-03T06:40:12;99947.38;;;12.52;63.39
62402;BME280;48440;51.224;22.506;2023-05-03T06:42:39;99943.84;;;12.52;63.28
62402;BME280;48440;51.224;22.506;2023-05-03T06:45:05;99946.31;;;12.53;62.43
62402;BME280;48440;51.224;22.506;2023-05-03T06:47:32;99948.66;;;12.45;62.72
62402;BME280;48440;51.224;22.506;2023-05-03T06:50:20;99946.25;;;12.48;62.99
62402;BME280;48440;51.224;22.506;2023-05-03T06:52:46;99957.47;;;12.52;62.75
62402;BME280;48440;51.224;22.506;2023-05-03T06:55:12;99949.44;;;12.62;62.45
62402;BME280;48440;51.224;22.506;2023-05-03T06:57:39;99945.13;;;12.66;61.84
62402;BME280;48440;51.224;22.506;2023-05-03T07:00:11;99951.66;;;12.65;62.57
62402;BME280;48440;51.224;22.506;2023-05-03T07:02:40;99947.28;;;12.64;63.22
62402;BME280;48440;51.224;22.506;2023-05-03T07:05:06;99954.50;;;12.75;63.35
62402;BME280;48440;51.224;22.506;2023-05-03T07:07:33;99960.91;;;12.86;62.63
62402;BME280;48440;51.224;22.506;2023-05-03T07:10:05;99962.97;;;13.01;62.57
62402;BME280;48440;51.224;22.506;2023-05-03T07:12:35;99954.88;;;13.06;62.05
62402;BME280;48440;51.224;22.506;2023-05-03T07:15:04;99951.69;;;13.14;61.55
62402;BME280;48440;51.224;22.506;2023-05-03T07:17:31;99957.09;;;13.09;60.11
62402;BME280;48440;51.224;22.506;2023-05-03T07:19:57;99961.72;;;13.08;60.14
62402;BME280;48440;51.224;22.506;2023-05-03T07:22:30;99964.69;;;13.07;60.24
62402;BME280;48440;51.224;22.506;2023-05-03T07:24:56;99953.78;;;13.07;60.64
62402;BME280;48440;51.224;22.506;2023-05-03T07:27:24;99958.72;;;13.10;60.26
62402;BME280;48440;51.224;22.506;2023-05-03T07:29:53;99952.09;;;13.22;60.81
62402;BME280;48440;51.224;22.506;2023-05-03T07:32:19;99952.00;;;13.39;60.42
62402;BME280;48440;51.224;22.506;2023-05-03T07:34:46;99958.63;;;13.48;60.00
62402;BME280;48440;51.224;22.506;2023-05-03T07:37:17;99954.00;;;13.49;59.32
62402;BME280;48440;51.224;22.506;2023-05-03T07:39:46;99953.19;;;13.48;59.31
62402;BME280;48440;51.224;22.506;2023-05-03T07:42:12;99955.34;;;13.46;59.14
62402;BME280;48440;51.224;22.506;2023-05-03T07:44:43;99957.75;;;13.43;59.25
62402;BME280;48440;51.224;22.506;2023-05-03T07:47:10;99959.72;;;13.47;59.26
62402;BME280;48440;51.224;22.506;2023-05-03T07:49:42;99968.22;;;13.51;59.70
62402;BME280;48440;51.224;22.506;2023-05-03T07:52:08;99965.19;;;13.52;59.91
62402;BME280;48440;51.224;22.506;2023-05-03T07:54:36;99966.94;;;13.64;59.38
62402;BME280;48440;51.224;22.506;2023-05-03T07:57:02;99971.00;;;13.61;58.65
62402;BME280;48440;51.224;22.506;2023-05-03T07:59:28;99960.94;;;13.62;58.34
62402;BME280;48440;51.224;22.506;2023-05-03T08:01:54;99958.81;;;13.69;58.73
62402;BME280;48440;51.224;22.506;2023-05-03T08:04:40;99966.19;;;13.68;57.99
62402;BME280;48440;51.224;22.506;2023-05-03T08:07:06;99969.22;;;13.72;57.99
62402;BME280;48440;51.224;22.506;2023-05-03T08:09:31;99965.09;;;13.69;57.16
62402;BME280;48440;51.224;22.506;2023-05-03T08:11:56;99967.78;;;13.64;57.36
62402;BME280;48440;51.224;22.506;2023-05-03T08:14:28;99974.31;;;13.63;57.20
62402;BME280;48440;51.224;22.506;2023-05-03T08:19:21;99976.47;;;13.61;56.56
62402;BME280;48440;51.224;22.506;2023-05-03T08:21:47;99978.69;;;13.64;57.22
62402;BME280;48440;51.224;22.506;2023-05-03T08:24:12;99982.53;;;13.68;56.34
62402;BME280;48440;51.224;22.506;2023-05-03T08:26:39;99980.13;;;13.72;56.13
62402;BME280;48440;51.224;22.506;2023-05-03T08:29:05;99973.28;;;13.69;56.35
62402;BME280;48440;51.224;22.506;2023-05-03T08:31:31;99983.94;;;13.71;55.74
62402;BME280;48440;51.224;22.506;2023-05-03T08:33:56;99989.47;;;13.81;56.63
62402;BME280;48440;51.224;22.506;2023-05-03T08:36:22;99985.41;;;13.83;55.81
62402;BME280;48440;51.224;22.506;2023-05-03T08:38:48;99995.78;;;13.86;55.93
62402;BME280;48440;51.224;22.506;2023-05-03T08:41:20;99998.25;;;13.88;55.22
62402;BME280;48440;51.224;22.506;2023-05-03T08:43:51;100003.94;;;13.81;54.15
62402;BME280;48440;51.224;22.506;2023-05-03T08:46:17;100008.03;;;13.84;54.13
62402;BME280;48440;51.224;22.506;2023-05-03T08:48:47;100014.63;;;13.88;55.41
62402;BME280;48440;51.224;22.506;2023-05-03T08:51:15;100011.91;;;13.88;56.01
62402;BME280;48440;51.224;22.506;2023-05-03T08:53:41;100020.16;;;13.93;56.03
62402;BME280;48440;51.224;22.506;2023-05-03T08:56:08;100023.69;;;13.93;55.80
62402;BME280;48440;51.224;22.506;2023-05-03T08:58:37;100031.88;;;13.93;56.19
62402;BME280;48440;51.224;22.506;2023-05-03T09:01:07;100026.69;;;13.92;55.95
62402;BME280;48440;51.224;22.506;2023-05-03T09:03:34;100024.56;;;13.99;56.00
62402;BME280;48440;51.224;22.506;2023-05-03T09:06:07;100038.78;;;14.01;56.10
62402;BME280;48440;51.224;22.506;2023-05-03T09:08:42;100023.25;;;14.07;55.85
62402;BME280;48440;51.224;22.506;2023-05-03T09:11:25;100020.81;;;14.10;55.51
62402;BME280;48440;51.224;22.506;2023-05-03T09:14:13;100030.03;;;13.99;56.25
62402;BME280;48440;51.224;22.506;2023-05-03T09:16:40;100028.69;;;14.02;56.93
62402;BME280;48440;51.224;22.506;2023-05-03T09:19:07;100026.50;;;14.04;57.15
62402;BME280;48440;51.224;22.506;2023-05-03T09:21:41;100025.97;;;14.02;57.41
62402;BME280;48440;51.224;22.506;2023-05-03T09:24:18;100029.53;;;14.07;57.70
62402;BME280;48440;51.224;22.506;2023-05-03T09:26:45;100032.50;;;14.01;57.38
62402;BME280;48440;51.224;22.506;2023-05-03T09:29:26;100038.22;;;13.99;58.07
62402;BME280;48440;51.224;22.506;2023-05-03T09:32:01;100033.59;;;14.05;57.96
62402;BME280;48440;51.224;22.506;2023-05-03T09:34:27;100026.72;;;13.97;57.23
62402;BME280;48440;51.224;22.506;2023-05-03T09:36:56;100032.97;;;13.92;57.19
62402;BME280;48440;51.224;22.506;2023-05-03T09:39:21;100030.69;;;13.84;57.92
62402;BME280;48440;51.224;22.506;2023-05-03T09:41:47;100030.06;;;13.77;57.47
62402;BME280;48440;51.224;22.506;2023-05-03T09:44:13;100035.53;;;13.77;57.63
62402;BME280;48440;51.224;22.506;2023-05-03T09:46:39;100036.00;;;13.69;58.05
62402;BME280;48440;51.224;22.506;2023-05-03T09:49:44;100047.50;;;13.71;59.24
62402;BME280;48440;51.224;22.506;2023-05-03T09:52:10;100035.25;;;13.74;59.20
62402;BME280;48440;51.224;22.506;2023-05-03T09:54:36;100039.13;;;13.83;60.09
62402;BME280;48440;51.224;22.506;2023-05-03T09:57:03;100037.78;;;13.85;59.43
62402;BME280;48440;51.224;22.506;2023-05-03T09:59:33;100047.06;;;13.84;60.03
62402;BME280;48440;51.224;22.506;2023-05-03T10:02:01;100041.88;;;13.83;60.15
62402;BME280;48440;51.224;22.506;2023-05-03T10:04:28;100042.38;;;13.80;59.75
62402;BME280;48440;51.224;22.506;2023-05-03T10:06:59;100046.97;;;13.74;59.87
62402;BME280;48440;51.224;22.506;2023-05-03T10:09:33;100051.03;;;13.72;59.28
62402;BME280;48440;51.224;22.506;2023-05-03T10:12:03;100051.75;;;13.62;58.84
62402;BME280;48440;51.224;22.506;2023-05-03T10:14:31;100058.28;;;13.61;59.77
62402;BME280;48440;51.224;22.506;2023-05-03T10:17:07;100060.69;;;13.57;59.98
62402;BME280;48440;51.224;22.506;2023-05-03T10:19:45;100056.31;;;13.56;60.22
62402;BME280;48440;51.224;22.506;2023-05-03T10:22:12;100051.75;;;13.62;60.41
62402;BME280;48440;51.224;22.506;2023-05-03T10:30:31;100049.34;;;13.66;61.10
62402;BME280;48440;51.224;22.506;2023-05-03T10:32:58;100049.13;;;13.72;61.13
62402;BME280;48440;51.224;22.506;2023-05-03T10:35:28;100055.66;;;13.71;61.12
62402;BME280;48440;51.224;22.506;2023-05-03T10:37:54;100052.44;;;13.74;61.05
62402;BME280;48440;51.224;22.506;2023-05-03T10:40:40;100057.34;;;13.77;60.92
62402;BME280;48440;51.224;22.506;2023-05-03T10:43:06;100057.91;;;13.79;60.20
62402;BME280;48440;51.224;22.506;2023-05-03T10:45:31;100058.47;;;13.81;60.81
62402;BME280;48440;51.224;22.506;2023-05-03T10:50:41;100062.00;;;13.77;60.49
62402;BME280;48440;51.224;22.506;2023-05-03T10:53:07;100062.78;;;13.72;60.56
62402;BME280;48440;51.224;22.506;2023-05-03T10:55:33;100063.91;;;13.76;60.96
62402;BME280;48440;51.224;22.506;2023-05-03T10:57:59;100064.75;;;13.77;61.32
62402;BME280;48440;51.224;22.506;2023-05-03T11:00:33;100065.53;;;13.77;61.26
62402;BME280;48440;51.224;22.506;2023-05-03T11:05:36;100060.66;;;13.79;60.43
62402;BME280;48440;51.224;22.506;2023-05-03T11:08:16;100061.84;;;13.88;59.87
62402;BME280;48440;51.224;22.506;2023-05-03T11:10:46;100065.50;;;13.99;57.99
62402;BME280;48440;51.224;22.506;2023-05-03T11:13:12;100062.25;;;14.02;56.13
62402;BME280;48440;51.224;22.506;2023-05-03T11:16:00;100063.59;;;14.00;55.09
62402;BME280;48440;51.224;22.506;2023-05-03T11:18:38;100057.34;;;14.04;55.03
62402;BME280;48440;51.224;22.506;2023-05-03T11:21:03;100058.69;;;14.02;54.44
62402;BME280;48440;51.224;22.506;2023-05-03T11:23:29;100066.66;;;14.08;53.73
62402;BME280;48440;51.224;22.506;2023-05-03T11:25:55;100058.25;;;14.15;53.00
62402;BME280;48440;51.224;22.506;2023-05-03T11:28:27;100060.78;;;14.21;53.06
62402;BME280;48440;51.224;22.506;2023-05-03T11:30:52;100058.97;;;14.37;53.92
62402;BME280;48440;51.224;22.506;2023-05-03T11:33:19;100066.72;;;14.45;53.53
62402;BME280;48440;51.224;22.506;2023-05-03T11:35:44;100057.25;;;14.53;53.38
62402;BME280;48440;51.224;22.506;2023-05-03T11:38:12;100062.16;;;14.56;52.85
62402;BME280;48440;51.224;22.506;2023-05-03T11:40:38;100064.38;;;14.59;52.06
62402;BME280;48440;51.224;22.506;2023-05-03T11:43:04;100064.41;;;14.64;51.46
62402;BME280;48440;51.224;22.506;2023-05-03T11:45:39;100063.66;;;14.74;50.83
62402;BME280;48440;51.224;22.506;2023-05-03T11:48:06;100063.44;;;14.85;50.76
62402;BME280;48440;51.224;22.506;2023-05-03T11:50:48;100073.88;;;14.93;50.78
62402;BME280;48440;51.224;22.506;2023-05-03T11:53:24;100063.81;;;14.99;50.13
62402;BME280;48440;51.224;22.506;2023-05-03T11:55:55;100057.28;;;15.05;50.14
62402;BME280;48440;51.224;22.506;2023-05-03T11:58:25;100053.50;;;15.16;50.00
62402;BME280;48440;51.224;22.506;2023-05-03T12:01:00;100050.19;;;15.14;48.68
62402;BME280;48440;51.224;22.506;2023-05-03T12:03:28;100051.84;;;15.15;48.28
62402;BME280;48440;51.224;22.506;2023-05-03T12:12:17;100050.13;;;14.99;49.09
62402;BME280;48440;51.224;22.506;2023-05-03T12:15:25;100053.94;;;14.93;48.86
62402;BME280;48440;51.224;22.506;2023-05-03T12:17:58;100049.84;;;14.96;48.66
62402;BME280;48440;51.224;22.506;2023-05-03T12:20:25;100055.25;;;14.85;48.32
62402;BME280;48440;51.224;22.506;2023-05-03T12:23:10;100051.13;;;14.83;48.54
62402;BME280;48440;51.224;22.506;2023-05-03T12:29:03;100049.78;;;14.85;48.87
62402;BME280;48440;51.224;22.506;2023-05-03T12:31:28;100048.16;;;14.89;48.87
62402;BME280;48440;51.224;22.506;2023-05-03T12:36:54;100039.75;;;15.01;48.88
62402;BME280;48440;51.224;22.506;2023-05-03T12:39:22;100037.31;;;15.00;48.47
62402;BME280;48440;51.224;22.506;2023-05-03T12:45:52;100040.03;;;15.00;48.98
62402;BME280;48440;51.224;22.506;2023-05-03T12:48:28;100028.31;;;15.09;49.71
62402;BME280;48440;51.224;22.506;2023-05-03T12:51:20;100027.75;;;15.02;48.22
62402;BME280;48440;51.224;22.506;2023-05-03T12:57:31;100029.63;;;14.97;48.24
62402;BME280;48440;51.224;22.506;2023-05-03T13:04:11;100032.66;;;15.00;48.26
62402;BME280;48440;51.224;22.506;2023-05-03T13:06:47;100028.81;;;14.96;48.14
62402;BME280;48440;51.224;22.506;2023-05-03T13:09:17;100025.28;;;15.01;48.30
62402;BME280;48440;51.224;22.506;2023-05-03T13:12:08;100025.81;;;14.98;48.31
62402;BME280;48440;51.224;22.506;2023-05-03T13:14:40;100025.50;;;14.94;48.43
62402;BME280;48440;51.224;22.506;2023-05-03T13:20:54;100024.63;;;14.83;47.65
62402;BME280;48440;51.224;22.506;2023-05-03T13:23:34;100021.34;;;14.81;47.86
62402;BME280;48440;51.224;22.506;2023-05-03T13:26:04;100015.09;;;14.86;47.70
62402;BME280;48440;51.224;22.506;2023-05-03T13:28:31;100013.72;;;14.88;47.75
62402;BME280;48440;51.224;22.506;2023-05-03T13:34:23;100006.06;;;14.85;46.88
62402;BME280;48440;51.224;22.506;2023-05-03T13:39:46;100010.69;;;14.80;46.18
62402;BME280;48440;51.224;22.506;2023-05-03T13:42:21;100011.56;;;14.90;49.74
62402;BME280;48440;51.224;22.506;2023-05-03T13:44:59;100007.22;;;14.94;48.57
62402;BME280;48440;51.224;22.506;2023-05-03T13:47:25;100008.56;;;14.92;48.12